Time;durP1;ratioP1;P1;durP2;ratioP2;P2;SDS_P1;SDS_P2;PMS_P1;PMS_P2;Temp;Humidity;BMP_temperature;BMP_pressure;BME280_temperature;BME280_humidity;BME280_pressure;Samples;Min_cycle;Max_cycle;Signal;HPM_P1;HPM_P2
2022/03/31 14:04:26;;;;;;;;;;;;;;;11.47;100.00;95995.69;4780678;29;19960;-68
2022/03/31 14:06:54;;;;;;;;;;;;;;;11.46;100.00;95983.72;5264160;24;19978;-68
2022/03/31 14:09:49;;;;;;;;;;;;;;;11.34;100.00;95983.81;4811692;29;19945;-68
2022/03/31 14:12:16;;;;;;;;;;;;;;;11.36;100.00;95976.50;4825867;29;19959;-68
2022/03/31 14:14:44;;;;;;;;;;;;;;;11.47;100.00;95976.09;4826835;29;20335;-68
2022/03/31 14:17:12;;;;;;;;;;;;;;;11.35;100.00;95976.94;4818434;29;19961;-68
2022/03/31 14:19:41;;;;;;;;;;;;;;;11.55;100.00;95968.97;4821058;29;19958;-69
2022/03/31 14:22:09;;;;;;;;;;;;;;;11.57;100.00;95963.69;4812184;29;19959;-68
2022/03/31 14:24:36;;;;;;;;;;;;;;;11.70;100.00;95958.78;4822131;29;19952;-68
2022/03/31 14:27:04;;;;;;;;;;;;;;;11.78;100.00;95963.66;4829719;29;20402;-68
2022/03/31 14:29:32;;;;;;;;;;;;;;;11.74;100.00;95963.00;4826357;29;19956;-68
2022/03/31 14:31:59;;;;;;;;;;;;;;;11.93;100.00;95958.25;4826199;29;19952;-68
2022/03/31 14:34:27;;;;;;;;;;;;;;;11.93;100.00;95954.66;4810609;29;19959;-68
2022/03/31 14:36:55;;;;;;;;;;;;;;;11.95;100.00;95961.34;4810713;29;19958;-68
2022/03/31 14:39:23;;;;;;;;;;;;;;;12.03;100.00;95950.63;4810601;29;19961;-68
2022/03/31 14:41:51;;;;;;;;;;;;;;;12.19;100.00;95945.53;4810565;29;19958;-68
2022/03/31 14:44:20;;;;;;;;;;;;;;;12.08;100.00;95952.81;4810155;29;19954;-68
2022/03/31 14:46:47;;;;;;;;;;;;;;;12.01;100.00;95948.28;4810660;29;20266;-68
2022/03/31 14:49:15;;;;;;;;;;;;;;;12.13;100.00;95941.75;4810673;29;20218;-68
2022/03/31 14:51:50;;;;;;;;;;;;;;;12.21;100.00;95950.66;4811821;29;19953;-68
2022/03/31 14:54:18;;;;;;;;;;;;;;;12.41;100.00;95945.38;4810643;29;19953;-68
2022/03/31 14:56:46;;;;;;;;;;;;;;;12.58;100.00;95940.22;4811567;29;19953;-68
2022/03/31 14:59:15;;;;;;;;;;;;;;;12.73;100.00;95941.94;4811230;29;19963;-68
2022/03/31 15:01:42;;;;;;;;;;;;;;;12.84;100.00;95938.63;4811638;29;19955;-68
2022/03/31 15:04:14;;;;;;;;;;;;;;;12.93;100.00;95942.22;4810561;29;19955;-68
2022/03/31 15:06:42;;;;;;;;;;;;;;;12.90;100.00;95943.16;4810629;29;19982;-68
2022/03/31 15:14:30;;;;;;;;;;;;;;;12.85;100.00;95937.41;4824967;29;19992;-68
2022/03/31 15:14:56;;;;;;;;;;;;;;;12.77;100.00;95938.97;4798629;29;19954;-68
2022/03/31 15:17:25;;;;;;;;;;;;;;;12.73;100.00;95939.13;4828983;29;19967;-68
2022/03/31 15:19:52;;;;;;;;;;;;;;;12.75;100.00;95936.63;4828616;29;20263;-68
2022/03/31 15:22:19;;;;;;;;;;;;;;;12.76;100.00;95929.00;4828534;29;20349;-68
2022/03/31 15:24:47;;;;;;;;;;;;;;;12.78;100.00;95926.50;4828136;29;19951;-68
2022/03/31 15:27:14;;;;;;;;;;;;;;;12.70;100.00;95933.66;4828630;29;19979;-68
2022/03/31 15:29:41;;;;;;;;;;;;;;;12.74;100.00;95923.84;4819648;29;20034;-68
2022/03/31 15:32:11;;;;;;;;;;;;;;;12.76;100.00;95927.00;4827829;29;19949;-68
2022/03/31 15:34:38;;;;;;;;;;;;;;;12.68;100.00;95927.75;4816807;29;20283;-69
2022/03/31 15:37:06;;;;;;;;;;;;;;;12.63;100.00;95917.97;4820982;29;20374;-69
2022/03/31 15:39:36;;;;;;;;;;;;;;;12.60;100.00;95913.28;4809226;29;20369;-68
2022/03/31 15:42:09;;;;;;;;;;;;;;;12.50;100.00;95920.94;4809969;29;20257;-68
2022/03/31 15:44:37;;;;;;;;;;;;;;;12.46;100.00;95916.72;4808595;29;19952;-68
2022/03/31 15:47:06;;;;;;;;;;;;;;;12.46;100.00;95917.50;4809260;29;19947;-68
2022/03/31 15:49:37;;;;;;;;;;;;;;;12.46;100.00;95913.91;4810992;29;19958;-68
2022/03/31 15:52:04;;;;;;;;;;;;;;;12.50;100.00;95909.72;4822929;29;20244;-68
2022/03/31 15:54:39;;;;;;;;;;;;;;;12.51;100.00;95904.88;4821660;29;20347;-68
2022/03/31 15:57:07;;;;;;;;;;;;;;;12.53;100.00;95902.38;4812778;29;19953;-68
2022/03/31 15:59:35;;;;;;;;;;;;;;;12.57;100.00;95903.00;4820487;29;19955;-68
2022/03/31 16:02:04;;;;;;;;;;;;;;;12.48;100.00;95903.81;4813747;29;19959;-68
2022/03/31 16:04:32;;;;;;;;;;;;;;;12.52;100.00;95906.44;4811135;29;19952;-68
2022/03/31 16:07:00;;;;;;;;;;;;;;;12.53;100.00;95911.59;4810852;29;19983;-68
2022/03/31 16:09:28;;;;;;;;;;;;;;;12.58;100.00;95895.38;4795344;29;19969;-68
2022/03/31 16:11:56;;;;;;;;;;;;;;;12.45;100.00;95903.94;4800626;29;19966;-68
2022/03/31 16:14:24;;;;;;;;;;;;;;;12.35;100.00;95905.97;4796269;29;19959;-68
2022/03/31 16:16:51;;;;;;;;;;;;;;;12.42;100.00;95902.84;4795068;29;19953;-68
2022/03/31 16:19:20;;;;;;;;;;;;;;;12.40;100.00;95908.16;4800610;29;19960;-69
2022/03/31 16:21:48;;;;;;;;;;;;;;;12.31;100.00;95908.16;4801019;29;19966;-68
2022/03/31 16:24:16;;;;;;;;;;;;;;;12.18;100.00;95907.53;4792992;29;20347;-68
2022/03/31 16:26:43;;;;;;;;;;;;;;;12.13;100.00;95907.38;4800618;29;20233;-68
2022/03/31 16:29:11;;;;;;;;;;;;;;;12.12;100.00;95906.59;4804655;29;19970;-68
2022/03/31 16:31:39;;;;;;;;;;;;;;;12.07;100.00;95906.44;4807843;29;19951;-68
2022/03/31 16:34:06;;;;;;;;;;;;;;;11.98;100.00;95909.25;4797272;29;19948;-68
2022/03/31 16:36:33;;;;;;;;;;;;;;;11.97;100.00;95908.47;4809394;29;19965;-68
2022/03/31 16:39:01;;;;;;;;;;;;;;;11.93;100.00;95898.66;4803853;29;19961;-68
2022/03/31 16:41:29;;;;;;;;;;;;;;;11.82;100.00;95908.28;4804797;29;20250;-68
2022/03/31 16:43:59;;;;;;;;;;;;;;;11.69;100.00;95912.44;4806190;29;19953;-68
2022/03/31 16:46:27;;;;;;;;;;;;;;;11.66;100.00;95907.75;4801677;29;19961;-68
2022/03/31 16:48:55;;;;;;;;;;;;;;;11.72;100.00;95914.31;4802259;29;20251;-68
2022/03/31 16:51:22;;;;;;;;;;;;;;;11.62;100.00;95907.09;4795460;29;20339;-68
2022/03/31 16:53:50;;;;;;;;;;;;;;;11.61;100.00;95902.75;4793545;29;19956;-68
2022/03/31 16:56:18;;;;;;;;;;;;;;;11.58;100.00;95903.66;4798142;29;19956;-68
2022/03/31 16:58:46;;;;;;;;;;;;;;;11.56;100.00;95906.16;4811373;29;19952;-68
2022/03/31 17:01:14;;;;;;;;;;;;;;;11.51;100.00;95907.56;4792733;29;19959;-68
2022/03/31 17:03:41;;;;;;;;;;;;;;;11.41;100.00;95900.38;4795649;29;19970;-68
2022/03/31 17:06:12;;;;;;;;;;;;;;;11.26;100.00;95898.59;4804997;29;20339;-68
2022/03/31 17:08:39;;;;;;;;;;;;;;;11.17;100.00;95893.75;4798248;29;20276;-69
2022/03/31 17:11:08;;;;;;;;;;;;;;;11.18;100.00;95893.28;4782882;29;19961;-68
2022/03/31 17:13:36;;;;;;;;;;;;;;;11.13;100.00;95895.88;4797421;29;19953;-68
2022/03/31 17:16:04;;;;;;;;;;;;;;;11.12;100.00;95900.72;4795276;29;19956;-68
2022/03/31 17:18:31;;;;;;;;;;;;;;;11.06;100.00;95898.97;4795167;29;19984;-68
2022/03/31 17:20:58;;;;;;;;;;;;;;;10.96;100.00;95895.34;4804350;29;19963;-68
2022/03/31 17:23:26;;;;;;;;;;;;;;;10.97;100.00;95898.94;4797312;29;19962;-68
2022/03/31 17:25:53;;;;;;;;;;;;;;;10.87;100.00;95900.13;4792192;29;19950;-68
2022/03/31 17:28:23;;;;;;;;;;;;;;;10.82;100.00;95906.28;4808525;29;19977;-68
2022/03/31 17:30:51;;;;;;;;;;;;;;;10.70;100.00;95901.56;4807524;29;19953;-68
2022/03/31 17:33:19;;;;;;;;;;;;;;;10.61;100.00;95904.31;4804977;29;20353;-68
2022/03/31 17:35:48;;;;;;;;;;;;;;;10.53;100.00;95912.19;4800786;29;19955;-68
2022/03/31 17:38:18;;;;;;;;;;;;;;;10.37;100.00;95907.56;4798399;29;19952;-68
2022/03/31 17:40:46;;;;;;;;;;;;;;;10.34;100.00;95904.91;4802151;29;19961;-68
2022/03/31 17:43:15;;;;;;;;;;;;;;;10.24;100.00;95909.66;4801552;29;19952;-68
2022/03/31 17:45:43;;;;;;;;;;;;;;;10.24;100.00;95917.25;4782205;29;19969;-68
2022/03/31 17:48:10;;;;;;;;;;;;;;;10.17;100.00;95912.66;4798712;29;19973;-68
2022/03/31 17:50:38;;;;;;;;;;;;;;;10.16;100.00;95915.91;4796617;29;19968;-68
2022/03/31 17:53:05;;;;;;;;;;;;;;;10.13;100.00;95914.03;4801833;29;19961;-68
2022/03/31 17:55:33;;;;;;;;;;;;;;;10.15;100.00;95914.38;4797808;29;19965;-68
2022/03/31 17:58:00;;;;;;;;;;;;;;;10.16;100.00;95915.91;4797253;29;20384;-68
2022/03/31 18:00:28;;;;;;;;;;;;;;;10.09;100.00;95910.56;4802297;29;19952;-68
2022/03/31 18:02:56;;;;;;;;;;;;;;;10.07;100.00;95924.97;4796441;29;19952;-68
2022/03/31 18:05:26;;;;;;;;;;;;;;;10.12;100.00;95916.06;4798024;29;20239;-68
2022/03/31 18:07:54;;;;;;;;;;;;;;;10.13;100.00;95925.19;4723543;29;2473845;-68
2022/03/31 18:10:22;;;;;;;;;;;;;;;10.14;100.00;95926.78;4819119;29;19979;-68
2022/03/31 18:12:50;;;;;;;;;;;;;;;10.15;100.00;95937.47;4821069;29;19951;-68
2022/03/31 18:15:18;;;;;;;;;;;;;;;10.16;100.00;95933.47;4819429;29;19952;-68
2022/03/31 18:17:46;;;;;;;;;;;;;;;10.17;100.00;95942.63;4816607;29;20351;-68
2022/03/31 18:20:15;;;;;;;;;;;;;;;10.16;100.00;95941.06;4822191;29;19953;-68
2022/03/31 18:22:42;;;;;;;;;;;;;;;10.18;100.00;95946.97;4816586;29;19947;-68
2022/03/31 18:25:11;;;;;;;;;;;;;;;10.13;100.00;95944.75;4816067;29;19957;-68
2022/03/31 18:27:40;;;;;;;;;;;;;;;10.15;100.00;95945.84;4820657;29;19953;-68
2022/03/31 18:35:41;;;;;;;;;;;;;;;10.21;100.00;95963.59;4818553;29;19959;-68
2022/03/31 18:38:11;;;;;;;;;;;;;;;10.25;100.00;95974.63;4825599;29;19963;-68
2022/03/31 18:40:39;;;;;;;;;;;;;;;10.21;100.00;95969.19;4816183;29;19961;-68
2022/03/31 18:43:07;;;;;;;;;;;;;;;10.20;100.00;95966.84;4821133;29;19953;-68
2022/03/31 18:45:34;;;;;;;;;;;;;;;10.21;100.00;95972.00;4823367;29;19959;-68
2022/03/31 18:48:02;;;;;;;;;;;;;;;10.19;100.00;95982.06;4823878;29;19960;-68
2022/03/31 18:50:29;;;;;;;;;;;;;;;10.22;100.00;95983.94;4816153;29;20267;-68
2022/03/31 18:52:57;;;;;;;;;;;;;;;10.25;100.00;95988.59;4816145;29;19953;-68
2022/03/31 18:55:24;;;;;;;;;;;;;;;10.25;100.00;95989.38;4813668;29;19960;-68
2022/03/31 18:57:52;;;;;;;;;;;;;;;10.27;100.00;95992.50;4825067;29;19950;-69
2022/03/31 19:00:19;;;;;;;;;;;;;;;10.28;100.00;95996.88;4810559;29;19960;-69
2022/03/31 19:02:49;;;;;;;;;;;;;;;10.32;100.00;96002.34;4809554;29;19960;-68
2022/03/31 19:05:16;;;;;;;;;;;;;;;10.34;100.00;95995.06;4818331;29;19956;-68
2022/03/31 19:07:44;;;;;;;;;;;;;;;10.32;100.00;96000.31;4815820;29;19985;-68
2022/03/31 19:10:12;;;;;;;;;;;;;;;10.38;100.00;96006.91;4818239;29;19968;-68
2022/03/31 19:12:39;;;;;;;;;;;;;;;10.41;100.00;96005.22;4813142;29;19948;-68
2022/03/31 19:15:08;;;;;;;;;;;;;;;10.38;100.00;96014.50;4817335;29;20225;-68
2022/03/31 19:17:43;;;;;;;;;;;;;;;10.38;100.00;96017.28;4814458;29;19957;-69
2022/03/31 19:20:11;;;;;;;;;;;;;;;10.40;100.00;96023.19;4812452;29;19952;-68
2022/03/31 19:22:39;;;;;;;;;;;;;;;10.42;100.00;96015.16;4819962;29;19955;-68
2022/03/31 19:25:08;;;;;;;;;;;;;;;10.38;100.00;96029.25;4823178;29;19958;-68
2022/03/31 19:27:36;;;;;;;;;;;;;;;10.38;100.00;96039.63;4818800;29;19957;-68
